»·PEaware :: N1980Z 05V-KDEN

N1980Z :: 05V-KDEN

FLIGHT INFORMATION

Flight Status: Arrived
Operator: Privately registered:
United States
More flights under this callsign
Pilot: Eric M. (17640)
Aircraft: CESSNA 550 CITATION 2/S2/BRAVO
(C550)
More flights by this aircraft type
Origin: 05V Blanca
United States
Destination: KDEN Denver Intl
United States
More flights between these airports :: More routes between these airports
Route: ALS LARKS9
File this flight plan on PilotEdge
Remarks:
Altitude:
(Current/Filed)
20,000ft
Speed:
(Current/Filed)
300kts
Departed: 09-Dec-18 01:32 PM
Arrived: 09-Dec-18 02:18 PM
Distance/Time
Traveled:
152nm/0:45
Distance/Time
To Go:
Arrived

Flight Plot

Page will automatically refresh every two minutes.

Flight plan parsing failed; only flown route is shown


Map Options




Map Legend


Flown Route
Filed Route
Departure Airport
Arrival Airport
Navaid (VOR, NDB)
Fix

Horizontal Profiles

Position Reports

Time Latitude Longitude Heading Altitude Ground
Speed
09-Dec-18 12:56 37.417289 -105.544552 88 7725ft 0kts
09-Dec-18 12:57 37.417289 -105.544552 88 7725ft 0kts
09-Dec-18 12:58 37.417289 -105.544552 88 7725ft 0kts
09-Dec-18 12:59 37.417289 -105.544552 88 7725ft 0kts
09-Dec-18 13:00 37.417289 -105.544552 88 7725ft 0kts
09-Dec-18 13:01 37.417289 -105.544552 88 7725ft 0kts
09-Dec-18 13:02 37.417289 -105.544552 88 7725ft 0kts
09-Dec-18 13:03 37.417289 -105.544552 88 7725ft 0kts
09-Dec-18 13:04 37.417289 -105.544552 88 7725ft 0kts
09-Dec-18 13:05 37.417289 -105.544552 88 7725ft 0kts
09-Dec-18 13:06 37.417289 -105.544552 88 7725ft 0kts
09-Dec-18 13:07 37.417289 -105.544552 88 7725ft 0kts
09-Dec-18 13:08 37.417289 -105.544552 88 7725ft 0kts
09-Dec-18 13:09 37.417289 -105.544552 88 7725ft 0kts
09-Dec-18 13:10 37.417305 -105.544470 53 7725ft 1kts
09-Dec-18 13:11 37.415727 -105.547130 223 7724ft 2kts
09-Dec-18 13:12 37.413360 -105.549857 220 7722ft 17kts
09-Dec-18 13:13 37.409641 -105.553955 184 7720ft 0kts
09-Dec-18 13:14 37.407962 -105.555150 221 7719ft 17kts
09-Dec-18 13:15 37.404888 -105.559170 197 7717ft 9kts
09-Dec-18 13:16 37.404705 -105.559135 115 7716ft 0kts
09-Dec-18 13:17 37.404705 -105.559135 115 7716ft 0kts
09-Dec-18 13:18 37.404705 -105.559135 115 7716ft 0kts
09-Dec-18 13:19 37.404705 -105.559135 115 7716ft 0kts
09-Dec-18 13:20 37.404705 -105.559135 115 7716ft 0kts
09-Dec-18 13:21 37.404705 -105.559135 115 7716ft 0kts
09-Dec-18 13:22 37.404705 -105.559135 115 7716ft 0kts
09-Dec-18 13:23 37.404705 -105.559135 115 7716ft 0kts
09-Dec-18 13:24 37.404705 -105.559135 115 7716ft 0kts
09-Dec-18 13:25 37.404705 -105.559135 115 7716ft 0kts
09-Dec-18 13:26 37.404705 -105.559135 115 7716ft 0kts
09-Dec-18 13:27 37.404705 -105.559135 115 7716ft 0kts
09-Dec-18 13:28 37.404705 -105.559135 115 7716ft 0kts
09-Dec-18 13:29 37.404705 -105.559135 115 7716ft 0kts
09-Dec-18 13:30 37.404800 -105.558625 42 7717ft 0kts
09-Dec-18 13:31 37.422037 -105.537117 42 8573ft 159kts
09-Dec-18 13:32 37.409994 -105.484484 166 11867ft 222kts
09-Dec-18 13:33 37.383949 -105.531052 279 15282ft 217kts
09-Dec-18 13:34 37.393254 -105.601990 273 18131ft 213kts
09-Dec-18 13:35 37.379370 -105.676840 263 20281ft 225kts
09-Dec-18 13:36 37.360232 -105.766272 265 20369ft 295kts
09-Dec-18 13:37 37.414089 -105.834211 349 20372ft 319kts
09-Dec-18 13:38 37.505587 -105.848872 349 20367ft 335kts
09-Dec-18 13:39 37.599690 -105.863808 349 20366ft 341kts
09-Dec-18 13:40 37.693377 -105.878721 349 20365ft 334kts
09-Dec-18 13:41 37.786984 -105.893663 349 20364ft 335kts
09-Dec-18 13:42 37.880898 -105.908703 349 20363ft 335kts
09-Dec-18 13:43 37.974826 -105.923766 349 20379ft 335kts
09-Dec-18 13:44 38.068354 -105.938819 349 20415ft 334kts
09-Dec-18 13:45 38.161749 -105.953868 349 20433ft 335kts
09-Dec-18 13:46 38.254904 -105.968955 349 20432ft 336kts
09-Dec-18 13:47 38.347759 -105.984003 349 20431ft 336kts
09-Dec-18 13:49 38.441059 -105.999561 349 20430ft 336kts
09-Dec-18 13:50 38.533772 -106.015441 349 20429ft 336kts
09-Dec-18 13:51 38.626817 -106.031440 349 20409ft 336kts
09-Dec-18 13:52 38.719800 -106.047463 349 20370ft 336kts
09-Dec-18 13:53 38.805277 -106.002905 41 20365ft 366kts
09-Dec-18 13:54 38.872270 -105.901964 43 20359ft 368kts
09-Dec-18 13:55 38.938537 -105.800194 44 20354ft 370kts
09-Dec-18 13:56 39.005260 -105.697292 45 20356ft 374kts
09-Dec-18 13:57 39.072349 -105.593367 45 20357ft 377kts
09-Dec-18 13:58 39.140128 -105.488087 45 20244ft 383kts
09-Dec-18 13:59 39.201511 -105.392464 45 18492ft 321kts
09-Dec-18 14:00 39.258662 -105.303330 47 16797ft 310kts
09-Dec-18 14:01 39.315268 -105.214566 47 15768ft 310kts
09-Dec-18 14:02 39.367868 -105.132390 49 15472ft 288kts
09-Dec-18 14:03 39.376068 -105.028937 88 14820ft 297kts
09-Dec-18 14:04 39.374328 -104.918122 87 14015ft 298kts
09-Dec-18 14:05 39.369769 -104.811403 88 13616ft 292kts
09-Dec-18 14:06 39.399328 -104.722102 39 12515ft 278kts
09-Dec-18 14:06 39.437760 -104.654288 60 11583ft 292kts
09-Dec-18 14:08 39.472162 -104.558271 42 10377ft 286kts
09-Dec-18 14:08 39.525616 -104.570550 309 9383ft 270kts
09-Dec-18 14:09 39.569328 -104.642431 323 8526ft 267kts
09-Dec-18 14:11 39.630702 -104.652541 353 8723ft 156kts
09-Dec-18 14:11 39.660699 -104.656318 355 8321ft 120kts
09-Dec-18 14:12 39.698612 -104.658073 347 8337ft 149kts
09-Dec-18 14:14 39.742240 -104.660646 357 7365ft 115kts
09-Dec-18 14:14 39.768275 -104.661192 357 6606ft 111kts
09-Dec-18 14:15 39.798335 -104.660593 358 6016ft 111kts
09-Dec-18 14:16 39.826107 -104.660525 359 5488ft 90kts
09-Dec-18 14:17 39.844750 -104.660451 357 5396ft 38kts
09-Dec-18 14:18 39.849212 -104.661699 331 5392ft 0kts
09-Dec-18 14:19 39.850127 -104.662298 288 5391ft 6kts
09-Dec-18 14:20 39.843098 -104.662501 179 5401ft 21kts
09-Dec-18 14:21 39.839764 -104.664438 254 5408ft 15kts
09-Dec-18 14:22 39.839675 -104.664825 252 5408ft 0kts
09-Dec-18 14:23 39.839675 -104.664825 252 5408ft 0kts
09-Dec-18 14:24 39.839675 -104.664825 252 5408ft 0kts
09-Dec-18 14:25 39.839675 -104.664825 252 5408ft 0kts
09-Dec-18 14:26 39.839675 -104.664825 252 5408ft 0kts
09-Dec-18 14:27 39.839675 -104.664825 252 5408ft 0kts
09-Dec-18 14:28 39.839675 -104.664825 252 5408ft 0kts
09-Dec-18 14:29 39.839675 -104.664825 252 5408ft 0kts
09-Dec-18 14:30 39.839675 -104.664825 252 5408ft 0kts
09-Dec-18 14:31 39.839675 -104.664825 252 5408ft 0kts

Navigation Log

Ident Type
Flight plan parsing failed, navigation log unavailable